Gillette, WY (82716)

4:36 PM MDT on August 27, 2016 (GMT -0600)
Gillette-Campbell County | | Change Station

Elev 4364 ft 44.34 °N, 105.54 °W | Updated 43 minutes ago

Clear
Clear
81 °F
Feels Like 81 °F
N
4
Wind Variable Wind from Variable

Today
High -- | Low -- °F
--% Chance of Precip.
Yesterday
High -- | Low -- °F
Precip. -- in
Pressure 29.78 in
Visibility 10.0 miles
Clouds Clear
Dew Point 29 °F
Humidity 15%
Rainfall 0.01 in
Snow Depth Not available.
6:20 AM 7:47 PM
Waning Crescent, 21% visible
METAR KGCC 272153Z AUTO VRB03KT 10SM CLR 27/M02 A2991 RMK AO2 SLP085 T02721017 $
Pressure 29.78 in
Visibility 10.0 miles
Clouds Clear
Dew Point 29 °F
Humidity 15%
Rainfall 0.01 in
Snow Depth Not available.
6:20 AM 7:47 PM
Waning Crescent, 21% visible
METAR KGCC 272153Z AUTO VRB03KT 10SM CLR 27/M02 A2991 RMK AO2 SLP085 T02721017 $

10-Day Weather Forecast

Almanac

Astronomy

Aug. 27, 2016 Rise Set
Actual Time
Civil Twilight
Nautical Twilight
Astronomical Twilight
Moon
Length of Visible Light
Length of Day
Tomorrow will be .
, % of the Moon is Illuminated

Today's Extremes

State Highs State Lows

Community

WunderPhotos

Upload Photos

1,935,457 photos uploaded!

WunderBlog® & News

Nearby

Air Quality

  Air Quality AQ Index Pollutant
Not available.

Snow Depth

Station Depth Elevation

Earthquake Activity

City Distance Mag. Time & Date
Minimum magnitude displayed is 2.5.

Coastal Water Temperatures

Place Temperature

Stations

Nearby Weather Stations

Station Location Temp. Windchill Dew Point Humidity Wind Precip. Elev Updated Type
                   

Watches & Warnings

There are currently no watches in effect.